sensor_id;sensor_type;location;lat;lon;timestamp;pressure;altitude;pressure_sealevel;temperature
11424;BMP180;5768;51.476;7.210;2023-04-23T00:02:28;99490.00;;;14.50
11424;BMP180;5768;51.476;7.210;2023-04-23T00:07:32;99502.00;;;14.40
11424;BMP180;5768;51.476;7.210;2023-04-23T00:12:37;99499.00;;;14.30
11424;BMP180;5768;51.476;7.210;2023-04-23T00:17:39;99486.00;;;14.30
11424;BMP180;5768;51.476;7.210;2023-04-23T00:22:42;99493.00;;;14.30
11424;BMP180;5768;51.476;7.210;2023-04-23T00:27:45;99483.00;;;14.20
11424;BMP180;5768;51.476;7.210;2023-04-23T00:32:48;99494.00;;;14.30
11424;BMP180;5768;51.476;7.210;2023-04-23T00:37:51;99480.00;;;14.20
11424;BMP180;5768;51.476;7.210;2023-04-23T00:42:55;99484.00;;;14.20
11424;BMP180;5768;51.476;7.210;2023-04-23T00:47:58;99493.00;;;14.20
11424;BMP180;5768;51.476;7.210;2023-04-23T00:53:00;99485.00;;;14.20
11424;BMP180;5768;51.476;7.210;2023-04-23T00:58:04;99479.00;;;14.30
11424;BMP180;5768;51.476;7.210;2023-04-23T01:03:07;99475.00;;;14.20
11424;BMP180;5768;51.476;7.210;2023-04-23T01:08:14;99475.00;;;14.20
11424;BMP180;5768;51.476;7.210;2023-04-23T01:13:18;99480.00;;;14.20
11424;BMP180;5768;51.476;7.210;2023-04-23T01:18:22;99473.00;;;14.30
11424;BMP180;5768;51.476;7.210;2023-04-23T01:23:26;99477.00;;;14.40
11424;BMP180;5768;51.476;7.210;2023-04-23T01:28:30;99475.00;;;14.40
11424;BMP180;5768;51.476;7.210;2023-04-23T01:33:33;99471.00;;;14.50
11424;BMP180;5768;51.476;7.210;2023-04-23T01:38:38;99477.00;;;14.40
11424;BMP180;5768;51.476;7.210;2023-04-23T01:43:41;99476.00;;;14.40
11424;BMP180;5768;51.476;7.210;2023-04-23T01:48:44;99465.00;;;14.40
11424;BMP180;5768;51.476;7.210;2023-04-23T01:53:48;99471.00;;;14.30
11424;BMP180;5768;51.476;7.210;2023-04-23T01:58:50;99479.00;;;14.30
11424;BMP180;5768;51.476;7.210;2023-04-23T02:03:53;99480.00;;;14.20
11424;BMP180;5768;51.476;7.210;2023-04-23T02:08:57;99478.00;;;14.10
11424;BMP180;5768;51.476;7.210;2023-04-23T02:14:00;99464.00;;;14.00
11424;BMP180;5768;51.476;7.210;2023-04-23T02:19:02;99463.00;;;13.90
11424;BMP180;5768;51.476;7.210;2023-04-23T02:24:06;99468.00;;;13.90
11424;BMP180;5768;51.476;7.210;2023-04-23T02:29:09;99463.00;;;13.90
11424;BMP180;5768;51.476;7.210;2023-04-23T02:34:11;99455.00;;;13.90
11424;BMP180;5768;51.476;7.210;2023-04-23T02:39:14;99454.00;;;13.80
11424;BMP180;5768;51.476;7.210;2023-04-23T02:44:17;99451.00;;;13.70
11424;BMP180;5768;51.476;7.210;2023-04-23T02:49:19;99442.00;;;13.60
11424;BMP180;5768;51.476;7.210;2023-04-23T02:54:22;99447.00;;;13.50
11424;BMP180;5768;51.476;7.210;2023-04-23T02:59:25;99450.00;;;13.40
11424;BMP180;5768;51.476;7.210;2023-04-23T03:04:30;99455.00;;;13.30
11424;BMP180;5768;51.476;7.210;2023-04-23T03:09:35;99456.00;;;13.30
11424;BMP180;5768;51.476;7.210;2023-04-23T03:14:38;99448.00;;;13.30
11424;BMP180;5768;51.476;7.210;2023-04-23T03:19:40;99451.00;;;13.40
11424;BMP180;5768;51.476;7.210;2023-04-23T03:24:43;99448.00;;;13.70
11424;BMP180;5768;51.476;7.210;2023-04-23T03:29:46;99439.00;;;13.80
11424;BMP180;5768;51.476;7.210;2023-04-23T03:34:48;99438.00;;;13.70
11424;BMP180;5768;51.476;7.210;2023-04-23T03:39:52;99434.00;;;13.50
11424;BMP180;5768;51.476;7.210;2023-04-23T03:44:54;99427.00;;;13.40
11424;BMP180;5768;51.476;7.210;2023-04-23T03:49:56;99426.00;;;13.40
11424;BMP180;5768;51.476;7.210;2023-04-23T03:55:00;99429.00;;;13.50
11424;BMP180;5768;51.476;7.210;2023-04-23T04:00:04;99413.00;;;13.70
11424;BMP180;5768;51.476;7.210;2023-04-23T04:05:09;99417.00;;;13.80
11424;BMP180;5768;51.476;7.210;2023-04-23T04:10:14;99405.00;;;13.90
11424;BMP180;5768;51.476;7.210;2023-04-23T04:15:16;99400.00;;;14.00
11424;BMP180;5768;51.476;7.210;2023-04-23T04:20:20;99403.00;;;14.00
11424;BMP180;5768;51.476;7.210;2023-04-23T04:25:23;99403.00;;;13.90
11424;BMP180;5768;51.476;7.210;2023-04-23T04:30:28;99393.00;;;13.80
11424;BMP180;5768;51.476;7.210;2023-04-23T04:35:31;99395.00;;;13.70
11424;BMP180;5768;51.476;7.210;2023-04-23T04:40:34;99401.00;;;13.60
11424;BMP180;5768;51.476;7.210;2023-04-23T04:45:37;99394.00;;;13.60
11424;BMP180;5768;51.476;7.210;2023-04-23T04:50:39;99388.00;;;13.50
11424;BMP180;5768;51.476;7.210;2023-04-23T04:55:43;99399.00;;;13.50
11424;BMP180;5768;51.476;7.210;2023-04-23T05:00:46;99399.00;;;13.50
11424;BMP180;5768;51.476;7.210;2023-04-23T05:05:51;99404.00;;;13.60
11424;BMP180;5768;51.476;7.210;2023-04-23T05:10:56;99409.00;;;13.70
11424;BMP180;5768;51.476;7.210;2023-04-23T05:16:00;99412.00;;;13.70
11424;BMP180;5768;51.476;7.210;2023-04-23T05:21:03;99418.00;;;13.80
11424;BMP180;5768;51.476;7.210;2023-04-23T05:26:07;99432.00;;;14.00
11424;BMP180;5768;51.476;7.210;2023-04-23T05:31:09;99432.00;;;14.30
11424;BMP180;5768;51.476;7.210;2023-04-23T05:36:12;99424.00;;;14.50
11424;BMP180;5768;51.476;7.210;2023-04-23T05:41:16;99426.00;;;14.70
11424;BMP180;5768;51.476;7.210;2023-04-23T05:46:19;99416.00;;;15.00
11424;BMP180;5768;51.476;7.210;2023-04-23T05:51:22;99413.00;;;15.40
11424;BMP180;5768;51.476;7.210;2023-04-23T05:56:26;99414.00;;;15.80
11424;BMP180;5768;51.476;7.210;2023-04-23T06:01:28;99413.00;;;16.10
11424;BMP180;5768;51.476;7.210;2023-04-23T06:06:30;99401.00;;;16.10
11424;BMP180;5768;51.476;7.210;2023-04-23T06:11:34;99421.00;;;16.20
11424;BMP180;5768;51.476;7.210;2023-04-23T06:16:36;99419.00;;;16.30
11424;BMP180;5768;51.476;7.210;2023-04-23T06:21:39;99414.00;;;16.40
11424;BMP180;5768;51.476;7.210;2023-04-23T06:26:42;99416.00;;;16.50
11424;BMP180;5768;51.476;7.210;2023-04-23T06:31:45;99419.00;;;16.60
11424;BMP180;5768;51.476;7.210;2023-04-23T06:36:47;99399.00;;;16.70
11424;BMP180;5768;51.476;7.210;2023-04-23T06:41:51;99406.00;;;16.90
11424;BMP180;5768;51.476;7.210;2023-04-23T06:46:53;99406.00;;;17.10
11424;BMP180;5768;51.476;7.210;2023-04-23T06:51:56;99395.00;;;17.20
11424;BMP180;5768;51.476;7.210;2023-04-23T06:56:59;99398.00;;;17.40
11424;BMP180;5768;51.476;7.210;2023-04-23T07:02:03;99406.00;;;17.70
11424;BMP180;5768;51.476;7.210;2023-04-23T07:07:05;99413.00;;;17.80
11424;BMP180;5768;51.476;7.210;2023-04-23T07:12:09;99405.00;;;17.90
11424;BMP180;5768;51.476;7.210;2023-04-23T07:17:12;99409.00;;;18.10
11424;BMP180;5768;51.476;7.210;2023-04-23T07:22:14;99392.00;;;18.20
11424;BMP180;5768;51.476;7.210;2023-04-23T07:27:18;99388.00;;;18.00
11424;BMP180;5768;51.476;7.210;2023-04-23T07:32:21;99393.00;;;17.60
11424;BMP180;5768;51.476;7.210;2023-04-23T07:37:27;99387.00;;;17.40
11424;BMP180;5768;51.476;7.210;2023-04-23T07:42:31;99382.00;;;17.30
11424;BMP180;5768;51.476;7.210;2023-04-23T07:47:34;99378.00;;;17.20
11424;BMP180;5768;51.476;7.210;2023-04-23T07:52:37;99377.00;;;17.30
11424;BMP180;5768;51.476;7.210;2023-04-23T07:57:43;99373.00;;;17.50
11424;BMP180;5768;51.476;7.210;2023-04-23T08:02:46;99377.00;;;17.70
11424;BMP180;5768;51.476;7.210;2023-04-23T08:07:48;99370.00;;;17.90
11424;BMP180;5768;51.476;7.210;2023-04-23T08:12:52;99370.00;;;18.10
11424;BMP180;5768;51.476;7.210;2023-04-23T08:17:54;99363.00;;;18.40
11424;BMP180;5768;51.476;7.210;2023-04-23T08:22:56;99363.00;;;18.60
11424;BMP180;5768;51.476;7.210;2023-04-23T08:28:00;99348.00;;;18.80
11424;BMP180;5768;51.476;7.210;2023-04-23T08:33:03;99355.00;;;18.70
11424;BMP180;5768;51.476;7.210;2023-04-23T08:38:06;99355.00;;;18.60
11424;BMP180;5768;51.476;7.210;2023-04-23T08:43:18;99350.00;;;18.30
11424;BMP180;5768;51.476;7.210;2023-04-23T08:48:21;99351.00;;;18.20
11424;BMP180;5768;51.476;7.210;2023-04-23T08:53:25;99356.00;;;18.00
11424;BMP180;5768;51.476;7.210;2023-04-23T08:58:30;99354.00;;;18.20
11424;BMP180;5768;51.476;7.210;2023-04-23T09:03:35;99351.00;;;18.50
11424;BMP180;5768;51.476;7.210;2023-04-23T09:08:38;99349.00;;;18.80
11424;BMP180;5768;51.476;7.210;2023-04-23T09:13:42;99348.00;;;19.20
11424;BMP180;5768;51.476;7.210;2023-04-23T09:18:45;99351.00;;;19.70
11424;BMP180;5768;51.476;7.210;2023-04-23T09:23:50;99348.00;;;19.80
11424;BMP180;5768;51.476;7.210;2023-04-23T09:28:54;99346.00;;;20.00
11424;BMP180;5768;51.476;7.210;2023-04-23T09:33:57;99332.00;;;19.70
11424;BMP180;5768;51.476;7.210;2023-04-23T09:39:00;99323.00;;;20.40
11424;BMP180;5768;51.476;7.210;2023-04-23T09:44:03;99313.00;;;21.00
11424;BMP180;5768;51.476;7.210;2023-04-23T09:49:06;99326.00;;;20.90
11424;BMP180;5768;51.476;7.210;2023-04-23T09:54:11;99338.00;;;20.70
11424;BMP180;5768;51.476;7.210;2023-04-23T09:59:24;99329.00;;;20.60
11424;BMP180;5768;51.476;7.210;2023-04-23T10:04:27;99324.00;;;21.00
11424;BMP180;5768;51.476;7.210;2023-04-23T10:09:30;99334.00;;;21.20
11424;BMP180;5768;51.476;7.210;2023-04-23T10:14:35;99325.00;;;21.60
11424;BMP180;5768;51.476;7.210;2023-04-23T10:19:41;99333.00;;;21.90
11424;BMP180;5768;51.476;7.210;2023-04-23T10:24:45;99324.00;;;21.80
11424;BMP180;5768;51.476;7.210;2023-04-23T10:29:53;99321.00;;;21.40
11424;BMP180;5768;51.476;7.210;2023-04-23T10:34:56;99323.00;;;21.20
11424;BMP180;5768;51.476;7.210;2023-04-23T10:40:07;99306.00;;;21.50
11424;BMP180;5768;51.476;7.210;2023-04-23T10:45:15;99289.00;;;22.00
11424;BMP180;5768;51.476;7.210;2023-04-23T10:50:21;99289.00;;;22.10
11424;BMP180;5768;51.476;7.210;2023-04-23T10:55:26;99283.00;;;22.10
11424;BMP180;5768;51.476;7.210;2023-04-23T11:00:44;99279.00;;;22.20
11424;BMP180;5768;51.476;7.210;2023-04-23T11:05:47;99270.00;;;22.30
11424;BMP180;5768;51.476;7.210;2023-04-23T11:10:55;99270.00;;;22.60
11424;BMP180;5768;51.476;7.210;2023-04-23T11:16:20;99259.00;;;22.20
11424;BMP180;5768;51.476;7.210;2023-04-23T11:21:59;99254.00;;;22.10
11424;BMP180;5768;51.476;7.210;2023-04-23T11:27:06;99246.00;;;22.20
11424;BMP180;5768;51.476;7.210;2023-04-23T11:32:12;99246.00;;;22.30
11424;BMP180;5768;51.476;7.210;2023-04-23T11:37:17;99238.00;;;22.60
11424;BMP180;5768;51.476;7.210;2023-04-23T11:42:19;99237.00;;;22.60
11424;BMP180;5768;51.476;7.210;2023-04-23T11:47:25;99223.00;;;22.80
11424;BMP180;5768;51.476;7.210;2023-04-23T11:52:28;99229.00;;;22.40
11424;BMP180;5768;51.476;7.210;2023-04-23T11:57:30;99225.00;;;22.30
11424;BMP180;5768;51.476;7.210;2023-04-23T12:02:50;99223.00;;;21.80
11424;BMP180;5768;51.476;7.210;2023-04-23T12:07:53;99222.00;;;21.40
11424;BMP180;5768;51.476;7.210;2023-04-23T12:12:57;99210.00;;;21.20
11424;BMP180;5768;51.476;7.210;2023-04-23T12:18:09;99213.00;;;21.50
11424;BMP180;5768;51.476;7.210;2023-04-23T12:23:11;99199.00;;;21.90
11424;BMP180;5768;51.476;7.210;2023-04-23T12:28:13;99184.00;;;23.50
11424;BMP180;5768;51.476;7.210;2023-04-23T12:33:17;99173.00;;;25.00
11424;BMP180;5768;51.476;7.210;2023-04-23T12:38:23;99173.00;;;25.90
11424;BMP180;5768;51.476;7.210;2023-04-23T12:43:26;99160.00;;;26.00
11424;BMP180;5768;51.476;7.210;2023-04-23T12:48:29;99158.00;;;25.50
11424;BMP180;5768;51.476;7.210;2023-04-23T12:53:32;99146.00;;;25.30
11424;BMP180;5768;51.476;7.210;2023-04-23T12:58:34;99135.00;;;25.40
11424;BMP180;5768;51.476;7.210;2023-04-23T13:03:38;99125.00;;;26.90
11424;BMP180;5768;51.476;7.210;2023-04-23T13:08:40;99126.00;;;27.70
11424;BMP180;5768;51.476;7.210;2023-04-23T13:13:43;99129.00;;;28.40
11424;BMP180;5768;51.476;7.210;2023-04-23T13:18:47;99120.00;;;29.00
11424;BMP180;5768;51.476;7.210;2023-04-23T13:23:55;99107.00;;;28.70
11424;BMP180;5768;51.476;7.210;2023-04-23T13:28:57;99105.00;;;29.30
11424;BMP180;5768;51.476;7.210;2023-04-23T13:34:01;99103.00;;;28.20
11424;BMP180;5768;51.476;7.210;2023-04-23T13:39:04;99084.00;;;28.00
11424;BMP180;5768;51.476;7.210;2023-04-23T13:44:08;99073.00;;;27.90
11424;BMP180;5768;51.476;7.210;2023-04-23T13:49:14;99070.00;;;28.80
11424;BMP180;5768;51.476;7.210;2023-04-23T13:54:16;99063.00;;;29.60
11424;BMP180;5768;51.476;7.210;2023-04-23T13:59:18;99065.00;;;31.10
11424;BMP180;5768;51.476;7.210;2023-04-23T14:04:25;99058.00;;;30.90
11424;BMP180;5768;51.476;7.210;2023-04-23T14:09:27;99055.00;;;29.70
11424;BMP180;5768;51.476;7.210;2023-04-23T14:14:30;99040.00;;;29.40
11424;BMP180;5768;51.476;7.210;2023-04-23T14:19:33;99049.00;;;29.70
11424;BMP180;5768;51.476;7.210;2023-04-23T14:24:44;99031.00;;;29.50
11424;BMP180;5768;51.476;7.210;2023-04-23T14:29:55;99026.00;;;28.70
11424;BMP180;5768;51.476;7.210;2023-04-23T14:34:59;99028.00;;;28.80
11424;BMP180;5768;51.476;7.210;2023-04-23T14:40:04;99004.00;;;28.50
11424;BMP180;5768;51.476;7.210;2023-04-23T14:45:08;99003.00;;;27.80
11424;BMP180;5768;51.476;7.210;2023-04-23T14:50:13;98988.00;;;26.50
11424;BMP180;5768;51.476;7.210;2023-04-23T14:55:16;98978.00;;;25.90
11424;BMP180;5768;51.476;7.210;2023-04-23T15:00:18;98972.00;;;25.20
11424;BMP180;5768;51.476;7.210;2023-04-23T15:05:23;98968.00;;;24.70
11424;BMP180;5768;51.476;7.210;2023-04-23T15:10:26;98965.00;;;24.60
11424;BMP180;5768;51.476;7.210;2023-04-23T15:15:37;98973.00;;;24.50
11424;BMP180;5768;51.476;7.210;2023-04-23T15:20:46;98959.00;;;24.10
11424;BMP180;5768;51.476;7.210;2023-04-23T15:25:49;98967.00;;;24.10
11424;BMP180;5768;51.476;7.210;2023-04-23T15:30:51;98963.00;;;24.00
11424;BMP180;5768;51.476;7.210;2023-04-23T15:35:55;98959.00;;;23.70
11424;BMP180;5768;51.476;7.210;2023-04-23T15:40:57;98963.00;;;23.30
11424;BMP180;5768;51.476;7.210;2023-04-23T15:46:00;98964.00;;;23.00
11424;BMP180;5768;51.476;7.210;2023-04-23T15:51:05;98964.00;;;22.80
11424;BMP180;5768;51.476;7.210;2023-04-23T15:56:07;98959.00;;;22.40
11424;BMP180;5768;51.476;7.210;2023-04-23T16:01:09;98946.00;;;22.20
11424;BMP180;5768;51.476;7.210;2023-04-23T16:06:13;98956.00;;;21.80
11424;BMP180;5768;51.476;7.210;2023-04-23T16:11:15;98964.00;;;21.40
11424;BMP180;5768;51.476;7.210;2023-04-23T16:16:17;98960.00;;;21.40
11424;BMP180;5768;51.476;7.210;2023-04-23T16:21:22;98962.00;;;21.30
11424;BMP180;5768;51.476;7.210;2023-04-23T16:26:24;98958.00;;;21.10
11424;BMP180;5768;51.476;7.210;2023-04-23T16:31:27;98959.00;;;21.00
11424;BMP180;5768;51.476;7.210;2023-04-23T16:36:30;98953.00;;;20.70
11424;BMP180;5768;51.476;7.210;2023-04-23T16:41:33;98943.00;;;20.30
11424;BMP180;5768;51.476;7.210;2023-04-23T16:46:36;98940.00;;;20.10
11424;BMP180;5768;51.476;7.210;2023-04-23T16:51:39;98936.00;;;19.70
11424;BMP180;5768;51.476;7.210;2023-04-23T16:56:42;98938.00;;;19.30
11424;BMP180;5768;51.476;7.210;2023-04-23T17:01:45;98929.00;;;18.90
11424;BMP180;5768;51.476;7.210;2023-04-23T17:06:49;98928.00;;;18.70
11424;BMP180;5768;51.476;7.210;2023-04-23T17:11:51;98925.00;;;18.60
11424;BMP180;5768;51.476;7.210;2023-04-23T17:16:54;98921.00;;;18.70
11424;BMP180;5768;51.476;7.210;2023-04-23T17:21:58;98909.00;;;18.70
11424;BMP180;5768;51.476;7.210;2023-04-23T17:27:00;98915.00;;;18.60
11424;BMP180;5768;51.476;7.210;2023-04-23T17:32:03;98913.00;;;18.40
11424;BMP180;5768;51.476;7.210;2023-04-23T17:37:07;98905.00;;;18.30
11424;BMP180;5768;51.476;7.210;2023-04-23T17:42:09;98868.00;;;18.20
11424;BMP180;5768;51.476;7.210;2023-04-23T17:47:13;98831.00;;;18.20
11424;BMP180;5768;51.476;7.210;2023-04-23T17:52:17;98824.00;;;18.10
11424;BMP180;5768;51.476;7.210;2023-04-23T17:57:19;98826.00;;;17.90
11424;BMP180;5768;51.476;7.210;2023-04-23T18:02:22;98831.00;;;17.90
11424;BMP180;5768;51.476;7.210;2023-04-23T18:07:26;98803.00;;;17.70
11424;BMP180;5768;51.476;7.210;2023-04-23T18:12:29;98791.00;;;17.60
11424;BMP180;5768;51.476;7.210;2023-04-23T18:17:32;98803.00;;;17.60
11424;BMP180;5768;51.476;7.210;2023-04-23T18:22:37;98805.00;;;17.40
11424;BMP180;5768;51.476;7.210;2023-04-23T18:27:39;98795.00;;;17.40
11424;BMP180;5768;51.476;7.210;2023-04-23T18:32:47;98776.00;;;17.30
11424;BMP180;5768;51.476;7.210;2023-04-23T18:37:58;98781.00;;;17.10
11424;BMP180;5768;51.476;7.210;2023-04-23T18:43:03;98783.00;;;17.00
11424;BMP180;5768;51.476;7.210;2023-04-23T18:48:56;98779.00;;;16.90
11424;BMP180;5768;51.476;7.210;2023-04-23T18:54:01;98772.00;;;16.90
11424;BMP180;5768;51.476;7.210;2023-04-23T18:59:03;98768.00;;;17.00
11424;BMP180;5768;51.476;7.210;2023-04-23T19:04:06;98765.00;;;17.00
11424;BMP180;5768;51.476;7.210;2023-04-23T19:09:10;98779.00;;;17.00
11424;BMP180;5768;51.476;7.210;2023-04-23T19:14:12;98775.00;;;17.00
11424;BMP180;5768;51.476;7.210;2023-04-23T19:19:15;98770.00;;;17.00
11424;BMP180;5768;51.476;7.210;2023-04-23T19:24:22;98756.00;;;17.00
11424;BMP180;5768;51.476;7.210;2023-04-23T19:29:25;98748.00;;;16.90
11424;BMP180;5768;51.476;7.210;2023-04-23T19:34:27;98754.00;;;16.80
11424;BMP180;5768;51.476;7.210;2023-04-23T19:39:31;98754.00;;;16.80
11424;BMP180;5768;51.476;7.210;2023-04-23T19:44:35;98748.00;;;16.80
11424;BMP180;5768;51.476;7.210;2023-04-23T19:49:38;98740.00;;;16.80
11424;BMP180;5768;51.476;7.210;2023-04-23T19:54:42;98736.00;;;16.60
11424;BMP180;5768;51.476;7.210;2023-04-23T19:59:49;98750.00;;;16.50
11424;BMP180;5768;51.476;7.210;2023-04-23T20:04:51;98752.00;;;16.50
11424;BMP180;5768;51.476;7.210;2023-04-23T20:09:57;98749.00;;;16.40
11424;BMP180;5768;51.476;7.210;2023-04-23T20:15:00;98742.00;;;16.30
11424;BMP180;5768;51.476;7.210;2023-04-23T20:20:03;98750.00;;;16.30
11424;BMP180;5768;51.476;7.210;2023-04-23T20:25:09;98765.00;;;16.20
11424;BMP180;5768;51.476;7.210;2023-04-23T20:30:13;98759.00;;;15.90
11424;BMP180;5768;51.476;7.210;2023-04-23T20:35:16;98765.00;;;15.60
11424;BMP180;5768;51.476;7.210;2023-04-23T20:40:19;98777.00;;;15.40
11424;BMP180;5768;51.476;7.210;2023-04-23T20:45:22;98780.00;;;15.20
11424;BMP180;5768;51.476;7.210;2023-04-23T20:50:25;98769.00;;;15.20
11424;BMP180;5768;51.476;7.210;2023-04-23T20:55:29;98785.00;;;15.20
11424;BMP180;5768;51.476;7.210;2023-04-23T21:00:31;98781.00;;;15.30
11424;BMP180;5768;51.476;7.210;2023-04-23T21:05:35;98774.00;;;15.40
11424;BMP180;5768;51.476;7.210;2023-04-23T21:10:41;98783.00;;;15.40
11424;BMP180;5768;51.476;7.210;2023-04-23T21:15:44;98779.00;;;15.50
11424;BMP180;5768;51.476;7.210;2023-04-23T21:20:46;98775.00;;;15.50
11424;BMP180;5768;51.476;7.210;2023-04-23T21:25:50;98757.00;;;15.50
11424;BMP180;5768;51.476;7.210;2023-04-23T21:30:54;98749.00;;;15.40
11424;BMP180;5768;51.476;7.210;2023-04-23T21:35:57;98745.00;;;15.40
11424;BMP180;5768;51.476;7.210;2023-04-23T21:41:01;98765.00;;;15.50
11424;BMP180;5768;51.476;7.210;2023-04-23T21:46:04;98758.00;;;15.40
11424;BMP180;5768;51.476;7.210;2023-04-23T21:51:07;98761.00;;;15.40
11424;BMP180;5768;51.476;7.210;2023-04-23T21:56:12;98800.00;;;15.30
11424;BMP180;5768;51.476;7.210;2023-04-23T22:01:15;98764.00;;;15.20
11424;BMP180;5768;51.476;7.210;2023-04-23T22:06:18;98778.00;;;15.20
11424;BMP180;5768;51.476;7.210;2023-04-23T22:11:22;98780.00;;;15.00
11424;BMP180;5768;51.476;7.210;2023-04-23T22:16:25;98776.00;;;14.90
11424;BMP180;5768;51.476;7.210;2023-04-23T22:21:28;98793.00;;;14.80
11424;BMP180;5768;51.476;7.210;2023-04-23T22:26:32;98792.00;;;14.80
11424;BMP180;5768;51.476;7.210;2023-04-23T22:31:35;98760.00;;;14.70
11424;BMP180;5768;51.476;7.210;2023-04-23T22:36:39;98767.00;;;14.70
11424;BMP180;5768;51.476;7.210;2023-04-23T22:41:45;98787.00;;;14.80
11424;BMP180;5768;51.476;7.210;2023-04-23T22:46:48;98768.00;;;14.70
11424;BMP180;5768;51.476;7.210;2023-04-23T22:51:50;98780.00;;;14.70
11424;BMP180;5768;51.476;7.210;2023-04-23T22:56:54;98791.00;;;14.70
11424;BMP180;5768;51.476;7.210;2023-04-23T23:01:58;98783.00;;;14.70
11424;BMP180;5768;51.476;7.210;2023-04-23T23:07:02;98758.00;;;14.80
11424;BMP180;5768;51.476;7.210;2023-04-23T23:12:06;98767.00;;;14.80
11424;BMP180;5768;51.476;7.210;2023-04-23T23:17:08;98760.00;;;14.70
11424;BMP180;5768;51.476;7.210;2023-04-23T23:22:11;98758.00;;;14.70
11424;BMP180;5768;51.476;7.210;2023-04-23T23:27:14;98762.00;;;14.70
11424;BMP180;5768;51.476;7.210;2023-04-23T23:32:17;98773.00;;;14.70
11424;BMP180;5768;51.476;7.210;2023-04-23T23:37:19;98758.00;;;14.50
11424;BMP180;5768;51.476;7.210;2023-04-23T23:42:22;98757.00;;;14.50
11424;BMP180;5768;51.476;7.210;2023-04-23T23:47:25;98766.00;;;14.50
11424;BMP180;5768;51.476;7.210;2023-04-23T23:52:27;98773.00;;;14.60
11424;BMP180;5768;51.476;7.210;2023-04-23T23:57:31;98759.00;;;14.60
